Watsonville, CA

6:59 AM PDT en Septiembre 20, 2014 (GMT -0700)
CORRALITOS | Change Station
CLOSE
Current Station
Estación meteorológica personal
Location: Watsonville, CA
Altura: 285 ft
Estaciones meteorológicas cercanas

Alt 285 ft 36.99 °N, 121.80 °W | Updated 13 minutes ago

Nublado
Nublado
60.0 ° F
Sensación térmica 60.0 ° F
N
1.0
Viento Variable Viento desde ENE

Hoy
Alta -- | Baja -- ° F
--% Posibilidad de precipitaciones
Ayer
Alta -- | Baja -- ° F
Precip. -- pul
6:53 AM 7:06 PM
Creciente menguante, 12% visible
Presión 29.91 pul
Visibilidad 4.0 Millas
Nubes Nublado 300 ft
Punto de rocío 58 ° F
Humedad 94%
Precipitaciones -999.00 pul
Espesor de la nieve 0 in , 1 in , 1 in
UV 0 de una escala de 12
Polen 4.00 de una escala de 12
Calidad del aire No disponible.
Flu Activity No disponible.
METAR KWVI 201253Z AUTO 00000KT 4SM BR OVC003 17/16 A2991 RMK AO2 SLP128 T01720156

More Conditions Fewer Conditions

Presión 29.91 pul
Visibilidad 4.0 Millas
Nubes Nublado 300 ft
Punto de rocío 58 ° F
Humedad 94%
Precipitaciones -999.00 pul
Espesor de la nieve 0 in , 1 in , 1 in
UV 0 de una escala de 12
Polen 4.00 de una escala de 12
Calidad del aire No disponible.
Flu Activity No disponible.
METAR KWVI 201253Z AUTO 00000KT 4SM BR OVC003 17/16 A2991 RMK AO2 SLP128 T01720156

More Conditions Fewer Conditions

10-Day Weather Forecast

Almanac

Astronomía

Sep. 20, 2014 Salida Puesta
Hora real 6:53 AM PDT 7:06 PM PDT
Crepúsculo civil 6:27 AM PDT 7:32 PM PDT
Crepúsculo náutico 5:56 AM PDT 8:02 PM PDT
Crepúsculo astronómico 5:26 AM PDT 8:33 PM PDT
Luna 3:41 AM PDT 5:09 PM PDT
Horas de luz 13h 05m
Horas de luz
12h 13m
Tomorrow will be 2m 20s shorter.
Creciente menguante, 12% of the Moon is Illuminated
Hoy
Creciente menguante
Sep 24
Nueva
Oct 1
Cuarto creciente
Oct 8
Luna llena
Oct 15
Cuarto menguante

Extremos de hoy

Máximos del estado Bajos del estado

Community

WunderPhotos

Upload Photos

1,754,858 ¡fotos cargadas!

Nearby

Grosos de nieve

Estación Profundido Altura
Burnside Lake 0 in 8139 ft
Echo Peak 1 in 7800 ft
Leavitt Meadows 1 in 7200 ft
Spratt Creek 1 in 6200 ft
Rubicon #2 0 in 7500 ft

Actividad de terremotos

Ciudad Distance Mag. Tiempo y dato
Livermore, California 50 Millas 2.6 3:37 AM PDT
2014-09-19
The Geysers, California 136 Millas 2.5 11:29 PM PDT
2014-09-17
Magnitud mínima muestra es 2,5.

Temperaturas de aguas costeras

Lugar Temperatura
Monterey, CA 63.0 ° F
Redwood City, CA 72.0 ° F

Estaciones meteorológicas cercanas